Pretty Lady — 9HVY9 — position and weather

sailwx.info

Track history (hours):
 
Tides and Currents Weather Stations Pressure Air Temp Water Temp Dewpoint Dewpoint Depression Visibility Wind Speed Wind Dir Waves Ship Positions

Pretty Lady

Last reported at 2017-Apr-12 01:15 UTC. Time now 2017-Apr-30 05:15 UTC.
Position S 01°59' W 044°06'.
Warning: this ship's position is 18 days out of date.

Length 189 m; draft 2 m.

Type: Cargo ship. MMSI: 249617000.

Date/timePositionNaut miles runAvg speedWind from/ knotsBaromVisibWave heightAir tempDewpointWater temp
2017-Apr-12 01:15S 01°59' W 044°06'1014.0
2017-Apr-12 00:32S 02°08' W 044°10'014.2
2017-Apr-12 00:30S 02°09' W 044°10'713.8
2017-Apr-12 00:00S 02°15' W 044°13'713.5
2017-Apr-11 23:30S 02°21' W 044°17'612.3
2017-Apr-11 23:00S 02°26' W 044°20'611.1
2017-Apr-11 22:30S 02°31' W 044°23'4 8.4
2017-Apr-11 22:00S 02°35' W 044°23'4 7.5
2017-Apr-11 21:30S 02°38' W 044°22'2 4.6
2017-Apr-11 20:59S 02°41' W 044°22'0 0.0
2017-Apr-11 20:29S 02°41' W 044°22'0 0.0
2017-Apr-11 19:59S 02°41' W 044°22'0 0.0
2017-Apr-11 19:29S 02°41' W 044°22'0 0.0
2017-Apr-11 17:59S 02°41' W 044°22'0 0.0
2017-Apr-11 17:26S 02°41' W 044°22'0 0.0
2017-Apr-11 16:59S 02°41' W 044°22'0 0.0
2017-Apr-11 16:29S 02°41' W 044°22'0 0.0
2017-Apr-11 15:59S 02°41' W 044°22'0 0.0
2017-Apr-11 15:29S 02°41' W 044°22'0 0.0
2017-Apr-11 14:59S 02°41' W 044°22'0 0.0
2017-Apr-11 14:29S 02°41' W 044°22'0 0.0
2017-Apr-11 13:29S 02°41' W 044°22'0 0.0
2017-Apr-11 12:59S 02°41' W 044°22'0 0.0
2017-Apr-11 12:29S 02°41' W 044°22'0 0.0
2017-Apr-11 11:59S 02°41' W 044°22'0 0.0
2017-Apr-11 11:29S 02°41' W 044°22'0 0.0
2017-Apr-11 10:59S 02°41' W 044°22'0 0.0
2017-Apr-11 09:51S 02°41' W 044°22'0 0.0
2017-Apr-11 09:27S 02°41' W 044°22'0 0.0
2017-Apr-11 08:57S 02°41' W 044°22'0 0.0
2017-Apr-11 08:21S 02°41' W 044°22'0 0.0
2017-Apr-11 07:45S 02°41' W 044°22'0 0.0
2017-Apr-11 07:21S 02°41' W 044°22'0 0.0
2017-Apr-11 06:54S 02°41' W 044°22'0 0.0
2017-Apr-11 06:29S 02°41' W 044°22'0 0.0
2017-Apr-11 05:59S 02°41' W 044°22'0 0.0
2017-Apr-11 05:28S 02°41' W 044°22'0 0.0
2017-Apr-11 04:58S 02°41' W 044°22'0 0.0
2017-Apr-11 04:28S 02°41' W 044°22'0 0.0
2017-Apr-11 03:58S 02°41' W 044°22'0 0.0
2017-Apr-11 03:28S 02°41' W 044°22'0 0.0
2017-Apr-11 02:58S 02°41' W 044°22'0 0.0
2017-Apr-11 02:27S 02°41' W 044°22'0 0.0
2017-Apr-11 01:46S 02°41' W 044°22'0 0.0
2017-Apr-11 01:28S 02°41' W 044°22'0 0.0
2017-Apr-11 00:58S 02°41' W 044°22'0 0.0
2017-Apr-11 00:28S 02°41' W 044°22'0 0.0
2017-Apr-10 23:58S 02°41' W 044°22'0 0.0
2017-Apr-10 23:28S 02°41' W 044°22'0 0.0
2017-Apr-10 22:58S 02°41' W 044°22'0 0.0
2017-Apr-10 22:28S 02°41' W 044°22'0 0.0
2017-Apr-10 21:58S 02°41' W 044°22'0 0.0
2017-Apr-10 21:25S 02°41' W 044°22'0 0.0
2017-Apr-10 20:04S 02°41' W 044°22'0 0.0
2017-Apr-10 19:46S 02°41' W 044°22'0 0.0
2017-Apr-10 19:28S 02°41' W 044°22'0 0.0
2017-Apr-10 18:55S 02°41' W 044°22'0 0.0
2017-Apr-10 18:28S 02°41' W 044°22'0 0.0
2017-Apr-10 17:58S 02°41' W 044°22'0 0.0
2017-Apr-10 17:28S 02°41' W 044°22'0 0.0
2017-Apr-10 16:58S 02°41' W 044°22'0 0.0
2017-Apr-10 16:28S 02°41' W 044°22'0 0.0
2017-Apr-10 15:58S 02°41' W 044°22'0 0.0
2017-Apr-10 15:28S 02°41' W 044°22'0 0.0
2017-Apr-10 14:55S 02°41' W 044°22'0 0.0
2017-Apr-10 14:28S 02°41' W 044°22'0 0.0
2017-Apr-10 13:28S 02°41' W 044°22'0 0.0
2017-Apr-10 12:58S 02°41' W 044°22'0 0.0
2017-Apr-10 12:28S 02°41' W 044°22'0 0.0
2017-Apr-10 11:58S 02°41' W 044°22'0 0.0
2017-Apr-10 11:28S 02°41' W 044°22'0 0.0
2017-Apr-10 10:58S 02°41' W 044°22'0 0.0
2017-Apr-10 10:28S 02°41' W 044°22'0 0.1
2017-Apr-10 10:00S 02°41' W 044°22'1 2.6
2017-Apr-10 09:29S 02°39' W 044°22'4 7.4
2017-Apr-10 09:00S 02°36' W 044°22'5 9.4
2017-Apr-10 08:30S 02°31' W 044°23'510.9
2017-Apr-10 08:00S 02°26' W 044°21'3 6.5
2017-Apr-10 07:30S 02°24' W 044°19'4 7.2
2017-Apr-10 07:00S 02°21' W 044°17'3 6.8
2017-Apr-10 06:30S 02°18' W 044°15'4 7.2
2017-Apr-10 06:00S 02°15' W 044°13'4 8.6
2017-Apr-10 05:30S 02°12' W 044°10'0 0.3
2017-Apr-10 04:58S 02°12' W 044°10'0 0.1
2017-Apr-10 04:28S 02°12' W 044°10'0 0.2
2017-Apr-10 03:58S 02°12' W 044°10'0 0.2
2017-Apr-10 03:28S 02°12' W 044°10'0 0.0
2017-Apr-10 02:58S 02°12' W 044°10'0 0.0
2017-Apr-10 02:28S 02°12' W 044°10'0 0.0
2017-Apr-10 01:58S 02°12' W 044°10'0 0.0
2017-Apr-10 01:28S 02°12' W 044°10'0 0.1
2017-Apr-10 00:55S 02°12' W 044°10'0 0.0
2017-Apr-10 00:28S 02°12' W 044°10'0 0.1
2017-Apr-09 23:58S 02°12' W 044°10'0 0.0
2017-Apr-09 23:28S 02°12' W 044°10'0 0.1
2017-Apr-09 22:58S 02°12' W 044°10'0 0.3
2017-Apr-09 22:31S 02°12' W 044°10'0 0.2
2017-Apr-09 22:00S 02°12' W 044°10'0 0.1
2017-Apr-09 21:30S 02°12' W 044°10'0 0.0
2017-Apr-09 20:54S 02°12' W 044°10'0 0.0
2017-Apr-09 19:51S 02°12' W 044°10'0 0.0
2017-Apr-09 19:27S 02°12' W 044°10'0 0.0
2017-Apr-09 18:57S 02°12' W 044°10'0 0.0
2017-Apr-09 18:27S 02°12' W 044°10'0 0.0
2017-Apr-09 18:00S 02°12' W 044°10'0 0.0
2017-Apr-09 17:30S 02°12' W 044°10'0 0.0
2017-Apr-09 17:00S 02°12' W 044°10'0 0.1
2017-Apr-09 16:30S 02°12' W 044°10'0 0.1
2017-Apr-09 16:00S 02°12' W 044°10'0 0.0
2017-Apr-09 15:30S 02°12' W 044°10'0 0.3
2017-Apr-09 15:00S 02°12' W 044°10'0 0.1
2017-Apr-09 14:00S 02°12' W 044°10'0 0.0
2017-Apr-09 13:30S 02°12' W 044°10'0 0.0
2017-Apr-09 13:00S 02°12' W 044°10'0 0.0
2017-Apr-09 12:30S 02°12' W 044°10'0 0.1
2017-Apr-09 12:00S 02°12' W 044°10'0 0.0
2017-Apr-09 11:30S 02°12' W 044°10'0 0.2
2017-Apr-09 11:00S 02°12' W 044°10'0 0.3
2017-Apr-09 10:18S 02°12' W 044°10'0 0.0
2017-Apr-09 07:45S 02°12' W 044°10'0 0.0
2017-Apr-09 07:15S 02°12' W 044°10'0 0.0
2017-Apr-09 07:00S 02°12' W 044°10'0 0.0
2017-Apr-09 06:30S 02°12' W 044°10'0 0.0
2017-Apr-09 05:27S 02°12' W 044°10'0 0.0
2017-Apr-09 04:09S 02°12' W 044°10'0 0.1
2017-Apr-09 03:51S 02°12' W 044°10'0 0.1
2017-Apr-09 03:27S 02°12' W 044°10'0 0.3
2017-Apr-09 03:00S 02°12' W 044°10'0 0.1
2017-Apr-09 02:27S 02°12' W 044°10'0 0.1
2017-Apr-09 02:00S 02°12' W 044°10'0 0.0
2017-Apr-09 01:30S 02°12' W 044°10'0 0.0
2017-Apr-09 01:00S 02°12' W 044°10'0 0.0
2017-Apr-09 00:30S 02°12' W 044°10'0 0.1
2017-Apr-08 23:57S 02°12' W 044°10'0 0.1
2017-Apr-08 23:30S 02°12' W 044°10'0 0.0
2017-Apr-08 23:00S 02°12' W 044°10'0 0.2
2017-Apr-08 22:24S 02°12' W 044°10'0 0.3
2017-Apr-08 21:54S 02°12' W 044°10'0 0.0
2017-Apr-08 21:30S 02°12' W 044°10'0 0.0
2017-Apr-08 21:00S 02°12' W 044°10'0 0.0
2017-Apr-08 20:01S 02°12' W 044°10'0 0.1
2017-Apr-08 19:52S 02°12' W 044°10'0 0.0
2017-Apr-08 19:01S 02°12' W 044°10'0 0.1
2017-Apr-08 18:37S 02°12' W 044°10'0 0.1
2017-Apr-08 18:30S 02°12' W 044°10'0 0.0
2017-Apr-08 17:37S 02°12' W 044°10'0 0.0
2017-Apr-08 16:54S 02°12' W 044°10'0 0.0
2017-Apr-08 16:30S 02°12' W 044°10'0 0.1
2017-Apr-08 16:00S 02°12' W 044°10'0 0.1
2017-Apr-08 15:30S 02°12' W 044°10'0 0.1
2017-Apr-08 15:00S 02°12' W 044°10'0 0.1
2017-Apr-08 14:00S 02°12' W 044°10'0 0.0
2017-Apr-08 13:30S 02°12' W 044°10'0 0.0
2017-Apr-08 13:00S 02°12' W 044°10'0 0.0
2017-Apr-08 12:30S 02°12' W 044°10'0 0.0
2017-Apr-08 12:00S 02°12' W 044°10'0 0.0
2017-Apr-08 11:30S 02°12' W 044°10'0 0.0
2017-Apr-08 11:00S 02°12' W 044°10'0 0.0
2017-Apr-08 10:29S 02°12' W 044°10'0 0.3
2017-Apr-08 09:59S 02°12' W 044°10'0 0.3
2017-Apr-08 09:29S 02°12' W 044°10'0 0.1
2017-Apr-08 08:56S 02°12' W 044°10'0 0.0
2017-Apr-08 08:29S 02°12' W 044°10'0 0.0
2017-Apr-08 07:59S 02°12' W 044°10'0 0.0
2017-Apr-08 07:29S 02°12' W 044°10'0 0.1
2017-Apr-08 06:59S 02°12' W 044°10'0 0.0
2017-Apr-08 06:29S 02°12' W 044°10'0 0.0
2017-Apr-08 05:59S 02°12' W 044°10'0 0.0
2017-Apr-08 05:29S 02°12' W 044°10'0 0.0
2017-Apr-08 04:53S 02°12' W 044°10'0 0.0
2017-Apr-08 04:30S 02°12' W 044°10'0 0.0
2017-Apr-08 03:59S 02°12' W 044°10'0 0.0
2017-Apr-08 03:29S 02°12' W 044°10'0 0.1
2017-Apr-08 02:59S 02°12' W 044°10'0 0.0
2017-Apr-08 02:29S 02°12' W 044°10'0 0.2
2017-Apr-08 01:59S 02°12' W 044°10'0 0.2
2017-Apr-08 01:29S 02°12' W 044°10'0 0.0
2017-Apr-08 00:32S 02°12' W 044°10'0 0.2
2017-Apr-08 00:30S 02°12' W 044°10'0 0.0
2017-Apr-07 23:56S 02°12' W 044°10'0 0.1
2017-Apr-07 23:29S 02°12' W 044°10'0 0.0
2017-Apr-07 22:59S 02°12' W 044°10'0 0.1
2017-Apr-07 22:29S 02°12' W 044°10'0 0.1
2017-Apr-07 22:00S 02°12' W 044°10'0 0.4
2017-Apr-07 21:29S 02°12' W 044°10'0 0.1
2017-Apr-07 19:02S 02°12' W 044°10'0 0.1
2017-Apr-07 18:59S 02°12' W 044°10'0 0.0
2017-Apr-07 18:29S 02°12' W 044°10'0 0.0
2017-Apr-07 17:56S 02°12' W 044°10'0 0.0
2017-Apr-07 17:29S 02°12' W 044°10'0 0.0
2017-Apr-07 16:59S 02°12' W 044°10'0 0.1
2017-Apr-07 16:29S 02°12' W 044°10'0 0.3
2017-Apr-07 16:00S 02°12' W 044°10'1 2.3
2017-Apr-07 15:30S 02°11' W 044°10'4 8.6
2017-Apr-07 15:00S 02°07' W 044°10'  
2017-Apr-04 23:27N 00°11' W 050°50'4 7.9
2017-Apr-04 22:59N 00°10' W 050°53'4 8.1
2017-Apr-04 22:30N 00°08' W 050°57'5 9.1
2017-Apr-04 22:00N 00°04' W 050°59'4 8.6
2017-Apr-04 21:30N 00°00' W 051°01'4 7.4
2017-Apr-04 21:00S 00°03' W 051°00'  
Track history (hours):
 
Tides and Currents Weather Stations Pressure Air Temp Water Temp Dewpoint Dewpoint Depression Visibility Wind Speed Wind Dir Waves Ship Positions

Pretty Lady

Last reported at 2017-Apr-12 01:15 UTC. Time now 2017-Apr-30 05:15 UTC.
Position S 01°59' W 044°06'.
Warning: this ship's position is 18 days out of date.

Length 189 m; draft 2 m.

Type: Cargo ship. MMSI: 249617000.

Date/timePositionNaut miles runAvg speedWind from/ knotsBaromVisibWave heightAir tempDewpointWater temp
2017-Apr-12 01:15S 01°59' W 044°06'1014.0
2017-Apr-12 00:32S 02°08' W 044°10'014.2
2017-Apr-12 00:30S 02°09' W 044°10'713.8
2017-Apr-12 00:00S 02°15' W 044°13'713.5
2017-Apr-11 23:30S 02°21' W 044°17'612.3
2017-Apr-11 23:00S 02°26' W 044°20'611.1
2017-Apr-11 22:30S 02°31' W 044°23'4 8.4
2017-Apr-11 22:00S 02°35' W 044°23'4 7.5
2017-Apr-11 21:30S 02°38' W 044°22'2 4.6
2017-Apr-11 20:59S 02°41' W 044°22'0 0.0
2017-Apr-11 20:29S 02°41' W 044°22'0 0.0
2017-Apr-11 19:59S 02°41' W 044°22'0 0.0
2017-Apr-11 19:29S 02°41' W 044°22'0 0.0
2017-Apr-11 17:59S 02°41' W 044°22'0 0.0
2017-Apr-11 17:26S 02°41' W 044°22'0 0.0
2017-Apr-11 16:59S 02°41' W 044°22'0 0.0
2017-Apr-11 16:29S 02°41' W 044°22'0 0.0
2017-Apr-11 15:59S 02°41' W 044°22'0 0.0
2017-Apr-11 15:29S 02°41' W 044°22'0 0.0
2017-Apr-11 14:59S 02°41' W 044°22'0 0.0
2017-Apr-11 14:29S 02°41' W 044°22'0 0.0
2017-Apr-11 13:29S 02°41' W 044°22'0 0.0
2017-Apr-11 12:59S 02°41' W 044°22'0 0.0
2017-Apr-11 12:29S 02°41' W 044°22'0 0.0
2017-Apr-11 11:59S 02°41' W 044°22'0 0.0
2017-Apr-11 11:29S 02°41' W 044°22'0 0.0
2017-Apr-11 10:59S 02°41' W 044°22'0 0.0
2017-Apr-11 09:51S 02°41' W 044°22'0 0.0
2017-Apr-11 09:27S 02°41' W 044°22'0 0.0
2017-Apr-11 08:57S 02°41' W 044°22'0 0.0
2017-Apr-11 08:21S 02°41' W 044°22'0 0.0
2017-Apr-11 07:45S 02°41' W 044°22'0 0.0
2017-Apr-11 07:21S 02°41' W 044°22'0 0.0
2017-Apr-11 06:54S 02°41' W 044°22'0 0.0
2017-Apr-11 06:29S 02°41' W 044°22'0 0.0
2017-Apr-11 05:59S 02°41' W 044°22'0 0.0
2017-Apr-11 05:28S 02°41' W 044°22'0 0.0
2017-Apr-11 04:58S 02°41' W 044°22'0 0.0
2017-Apr-11 04:28S 02°41' W 044°22'0 0.0
2017-Apr-11 03:58S 02°41' W 044°22'0 0.0
2017-Apr-11 03:28S 02°41' W 044°22'0 0.0
2017-Apr-11 02:58S 02°41' W 044°22'0 0.0
2017-Apr-11 02:27S 02°41' W 044°22'0 0.0
2017-Apr-11 01:46S 02°41' W 044°22'0 0.0
2017-Apr-11 01:28S 02°41' W 044°22'0 0.0
2017-Apr-11 00:58S 02°41' W 044°22'0 0.0
2017-Apr-11 00:28S 02°41' W 044°22'0 0.0
2017-Apr-10 23:58S 02°41' W 044°22'0 0.0
2017-Apr-10 23:28S 02°41' W 044°22'0 0.0
2017-Apr-10 22:58S 02°41' W 044°22'0 0.0
2017-Apr-10 22:28S 02°41' W 044°22'0 0.0
2017-Apr-10 21:58S 02°41' W 044°22'0 0.0
2017-Apr-10 21:25S 02°41' W 044°22'0 0.0
2017-Apr-10 20:04S 02°41' W 044°22'0 0.0
2017-Apr-10 19:46S 02°41' W 044°22'0 0.0
2017-Apr-10 19:28S 02°41' W 044°22'0 0.0
2017-Apr-10 18:55S 02°41' W 044°22'0 0.0
2017-Apr-10 18:28S 02°41' W 044°22'0 0.0
2017-Apr-10 17:58S 02°41' W 044°22'0 0.0
2017-Apr-10 17:28S 02°41' W 044°22'0 0.0
2017-Apr-10 16:58S 02°41' W 044°22'0 0.0
2017-Apr-10 16:28S 02°41' W 044°22'0 0.0
2017-Apr-10 15:58S 02°41' W 044°22'0 0.0
2017-Apr-10 15:28S 02°41' W 044°22'0 0.0
2017-Apr-10 14:55S 02°41' W 044°22'0 0.0
2017-Apr-10 14:28S 02°41' W 044°22'0 0.0
2017-Apr-10 13:28S 02°41' W 044°22'0 0.0
2017-Apr-10 12:58S 02°41' W 044°22'0 0.0
2017-Apr-10 12:28S 02°41' W 044°22'0 0.0
2017-Apr-10 11:58S 02°41' W 044°22'0 0.0
2017-Apr-10 11:28S 02°41' W 044°22'0 0.0
2017-Apr-10 10:58S 02°41' W 044°22'0 0.0
2017-Apr-10 10:28S 02°41' W 044°22'0 0.1
2017-Apr-10 10:00S 02°41' W 044°22'1 2.6
2017-Apr-10 09:29S 02°39' W 044°22'4 7.4
2017-Apr-10 09:00S 02°36' W 044°22'5 9.4
2017-Apr-10 08:30S 02°31' W 044°23'510.9
2017-Apr-10 08:00S 02°26' W 044°21'3 6.5
2017-Apr-10 07:30S 02°24' W 044°19'4 7.2
2017-Apr-10 07:00S 02°21' W 044°17'3 6.8
2017-Apr-10 06:30S 02°18' W 044°15'4 7.2
2017-Apr-10 06:00S 02°15' W 044°13'4 8.6
2017-Apr-10 05:30S 02°12' W 044°10'0 0.3
2017-Apr-10 04:58S 02°12' W 044°10'0 0.1
2017-Apr-10 04:28S 02°12' W 044°10'0 0.2
2017-Apr-10 03:58S 02°12' W 044°10'0 0.2
2017-Apr-10 03:28S 02°12' W 044°10'0 0.0
2017-Apr-10 02:58S 02°12' W 044°10'0 0.0
2017-Apr-10 02:28S 02°12' W 044°10'0 0.0
2017-Apr-10 01:58S 02°12' W 044°10'0 0.0
2017-Apr-10 01:28S 02°12' W 044°10'0 0.1
2017-Apr-10 00:55S 02°12' W 044°10'0 0.0
2017-Apr-10 00:28S 02°12' W 044°10'0 0.1
2017-Apr-09 23:58S 02°12' W 044°10'0 0.0
2017-Apr-09 23:28S 02°12' W 044°10'0 0.1
2017-Apr-09 22:58S 02°12' W 044°10'0 0.3
2017-Apr-09 22:31S 02°12' W 044°10'0 0.2
2017-Apr-09 22:00S 02°12' W 044°10'0 0.1
2017-Apr-09 21:30S 02°12' W 044°10'0 0.0
2017-Apr-09 20:54S 02°12' W 044°10'0 0.0
2017-Apr-09 19:51S 02°12' W 044°10'0 0.0
2017-Apr-09 19:27S 02°12' W 044°10'0 0.0
2017-Apr-09 18:57S 02°12' W 044°10'0 0.0
2017-Apr-09 18:27S 02°12' W 044°10'0 0.0
2017-Apr-09 18:00S 02°12' W 044°10'0 0.0
2017-Apr-09 17:30S 02°12' W 044°10'0 0.0
2017-Apr-09 17:00S 02°12' W 044°10'0 0.1
2017-Apr-09 16:30S 02°12' W 044°10'0 0.1
2017-Apr-09 16:00S 02°12' W 044°10'0 0.0
2017-Apr-09 15:30S 02°12' W 044°10'0 0.3
2017-Apr-09 15:00S 02°12' W 044°10'0 0.1
2017-Apr-09 14:00S 02°12' W 044°10'0 0.0
2017-Apr-09 13:30S 02°12' W 044°10'0 0.0
2017-Apr-09 13:00S 02°12' W 044°10'0 0.0
2017-Apr-09 12:30S 02°12' W 044°10'0 0.1
2017-Apr-09 12:00S 02°12' W 044°10'0 0.0
2017-Apr-09 11:30S 02°12' W 044°10'0 0.2
2017-Apr-09 11:00S 02°12' W 044°10'0 0.3
2017-Apr-09 10:18S 02°12' W 044°10'0 0.0
2017-Apr-09 07:45S 02°12' W 044°10'0 0.0
2017-Apr-09 07:15S 02°12' W 044°10'0 0.0
2017-Apr-09 07:00S 02°12' W 044°10'0 0.0
2017-Apr-09 06:30S 02°12' W 044°10'0 0.0
2017-Apr-09 05:27S 02°12' W 044°10'0 0.0
2017-Apr-09 04:09S 02°12' W 044°10'0 0.1
2017-Apr-09 03:51S 02°12' W 044°10'0 0.1
2017-Apr-09 03:27S 02°12' W 044°10'0 0.3
2017-Apr-09 03:00S 02°12' W 044°10'0 0.1
2017-Apr-09 02:27S 02°12' W 044°10'0 0.1
2017-Apr-09 02:00S 02°12' W 044°10'0 0.0
2017-Apr-09 01:30S 02°12' W 044°10'0 0.0
2017-Apr-09 01:00S 02°12' W 044°10'0 0.0
2017-Apr-09 00:30S 02°12' W 044°10'0 0.1
2017-Apr-08 23:57S 02°12' W 044°10'0 0.1
2017-Apr-08 23:30S 02°12' W 044°10'0 0.0
2017-Apr-08 23:00S 02°12' W 044°10'0 0.2
2017-Apr-08 22:24S 02°12' W 044°10'0 0.3
2017-Apr-08 21:54S 02°12' W 044°10'0 0.0
2017-Apr-08 21:30S 02°12' W 044°10'0 0.0
2017-Apr-08 21:00S 02°12' W 044°10'0 0.0
2017-Apr-08 20:01S 02°12' W 044°10'0 0.1
2017-Apr-08 19:52S 02°12' W 044°10'0 0.0
2017-Apr-08 19:01S 02°12' W 044°10'0 0.1
2017-Apr-08 18:37S 02°12' W 044°10'0 0.1
2017-Apr-08 18:30S 02°12' W 044°10'0 0.0
2017-Apr-08 17:37S 02°12' W 044°10'0 0.0
2017-Apr-08 16:54S 02°12' W 044°10'0 0.0
2017-Apr-08 16:30S 02°12' W 044°10'0 0.1
2017-Apr-08 16:00S 02°12' W 044°10'0 0.1
2017-Apr-08 15:30S 02°12' W 044°10'0 0.1
2017-Apr-08 15:00S 02°12' W 044°10'0 0.1
2017-Apr-08 14:00S 02°12' W 044°10'0 0.0
2017-Apr-08 13:30S 02°12' W 044°10'0 0.0
2017-Apr-08 13:00S 02°12' W 044°10'0 0.0
2017-Apr-08 12:30S 02°12' W 044°10'0 0.0
2017-Apr-08 12:00S 02°12' W 044°10'0 0.0
2017-Apr-08 11:30S 02°12' W 044°10'0 0.0
2017-Apr-08 11:00S 02°12' W 044°10'0 0.0
2017-Apr-08 10:29S 02°12' W 044°10'0 0.3
2017-Apr-08 09:59S 02°12' W 044°10'0 0.3
2017-Apr-08 09:29S 02°12' W 044°10'0 0.1
2017-Apr-08 08:56S 02°12' W 044°10'0 0.0
2017-Apr-08 08:29S 02°12' W 044°10'0 0.0
2017-Apr-08 07:59S 02°12' W 044°10'0 0.0
2017-Apr-08 07:29S 02°12' W 044°10'0 0.1
2017-Apr-08 06:59S 02°12' W 044°10'0 0.0
2017-Apr-08 06:29S 02°12' W 044°10'0 0.0
2017-Apr-08 05:59S 02°12' W 044°10'0 0.0
2017-Apr-08 05:29S 02°12' W 044°10'0 0.0
2017-Apr-08 04:53S 02°12' W 044°10'0 0.0
2017-Apr-08 04:30S 02°12' W 044°10'0 0.0
2017-Apr-08 03:59S 02°12' W 044°10'0 0.0
2017-Apr-08 03:29S 02°12' W 044°10'0 0.1
2017-Apr-08 02:59S 02°12' W 044°10'0 0.0
2017-Apr-08 02:29S 02°12' W 044°10'0 0.2
2017-Apr-08 01:59S 02°12' W 044°10'0 0.2
2017-Apr-08 01:29S 02°12' W 044°10'0 0.0
2017-Apr-08 00:32S 02°12' W 044°10'0 0.2
2017-Apr-08 00:30S 02°12' W 044°10'0 0.0
2017-Apr-07 23:56S 02°12' W 044°10'0 0.1
2017-Apr-07 23:29S 02°12' W 044°10'0 0.0
2017-Apr-07 22:59S 02°12' W 044°10'0 0.1
2017-Apr-07 22:29S 02°12' W 044°10'0 0.1
2017-Apr-07 22:00S 02°12' W 044°10'0 0.4
2017-Apr-07 21:29S 02°12' W 044°10'0 0.1
2017-Apr-07 19:02S 02°12' W 044°10'0 0.1
2017-Apr-07 18:59S 02°12' W 044°10'0 0.0
2017-Apr-07 18:29S 02°12' W 044°10'0 0.0
2017-Apr-07 17:56S 02°12' W 044°10'0 0.0
2017-Apr-07 17:29S 02°12' W 044°10'0 0.0
2017-Apr-07 16:59S 02°12' W 044°10'0 0.1
2017-Apr-07 16:29S 02°12' W 044°10'0 0.3
2017-Apr-07 16:00S 02°12' W 044°10'1 2.3
2017-Apr-07 15:30S 02°11' W 044°10'4 8.6
2017-Apr-07 15:00S 02°07' W 044°10'  
2017-Apr-04 23:27N 00°11' W 050°50'4 7.9
2017-Apr-04 22:59N 00°10' W 050°53'4 8.1
2017-Apr-04 22:30N 00°08' W 050°57'5 9.1
2017-Apr-04 22:00N 00°04' W 050°59'4 8.6
2017-Apr-04 21:30N 00°00' W 051°01'4 7.4
2017-Apr-04 21:00S 00°03' W 051°00'  

Dump ship's entire track history